createdAt,value
2023-03-22T00:02:39.651Z,7.79
2023-03-22T00:17:39.574Z,7.80
2023-03-22T00:32:39.767Z,7.90
2023-03-22T00:47:40.495Z,7.59
2023-03-22T01:02:41.725Z,9.03
2023-03-22T01:17:42.288Z,8.12
2023-03-22T01:32:42.559Z,7.81
2023-03-22T01:47:43.242Z,9.05
2023-03-22T02:02:44.140Z,8.53
2023-03-22T02:17:44.102Z,8.53
2023-03-22T02:32:44.325Z,9.56
2023-03-22T02:47:44.580Z,8.53
2023-03-22T03:02:45.283Z,8.95
2023-03-22T03:17:46.331Z,9.05
2023-03-22T03:32:47.173Z,9.36
2023-03-22T03:47:47.898Z,9.16
2023-03-22T04:02:48.888Z,9.25
2023-03-22T04:17:49.530Z,8.23
2023-03-22T04:32:50.311Z,7.61
2023-03-22T04:47:50.550Z,7.61
2023-03-22T05:02:51.428Z,7.20
2023-03-22T05:17:51.952Z,5.96
2023-03-22T05:32:52.244Z,7.10
2023-03-22T05:47:52.987Z,6.38
2023-03-22T06:02:54.176Z,5.86
2023-03-22T06:17:54.779Z,5.76
2023-03-22T06:32:54.932Z,5.04
2023-03-22T06:47:54.941Z,4.72
2023-03-22T07:02:55.525Z,4.11
2023-03-22T07:17:55.627Z,4.72
2023-03-22T07:32:55.965Z,13.13
2023-03-22T07:47:56.450Z,29.22
2023-03-22T08:02:57.147Z,46.48
2023-03-22T08:17:57.185Z,71.62
2023-03-22T08:32:57.480Z,75.45
2023-03-22T08:47:57.744Z,86.35
2023-03-22T09:02:58.525Z,88.88
2023-03-22T09:17:59.154Z,98.43
2023-03-22T09:32:59.762Z,99.93
2023-03-22T09:48:00.636Z,99.78
2023-03-22T10:03:00.895Z,98.46
2023-03-22T10:18:00.896Z,96.19
2023-03-22T10:33:01.179Z,96.86
2023-03-22T10:48:01.322Z,94.98
2023-03-22T11:03:01.451Z,89.53
2023-03-22T11:18:01.686Z,86.21
2023-03-22T11:33:01.988Z,79.62
2023-03-22T11:48:02.155Z,79.54
2023-03-22T12:03:03.038Z,73.68
2023-03-22T12:18:04.969Z,73.08
2023-03-22T12:33:06.793Z,68.91
2023-03-22T12:48:07.328Z,69.25
2023-03-22T13:03:10.327Z,67.84
2023-03-22T13:18:11.768Z,70.53
2023-03-22T13:33:12.459Z,71.64
2023-03-22T13:48:13.269Z,72.07
2023-03-22T14:03:14.415Z,71.70
2023-03-22T14:18:15.069Z,69.01
2023-03-22T14:46:36.990Z,69.32
2023-03-22T15:01:37.264Z,69.59
2023-03-22T15:16:37.449Z,71.06
2023-03-22T15:31:38.135Z,70.76
2023-03-22T15:46:38.884Z,70.89
2023-03-22T16:01:39.611Z,71.17
2023-03-22T16:16:40.311Z,71.64
2023-03-22T16:31:45.274Z,71.88
2023-03-22T16:46:45.905Z,74.24
2023-03-22T17:01:46.307Z,76.50
2023-03-22T17:16:46.346Z,78.40
2023-03-22T17:31:57.830Z,79.14
2023-03-22T18:01:57.772Z,87.59
2023-03-22T18:16:58.518Z,90.52
2023-03-22T18:46:59.111Z,94.07
2023-03-22T19:02:09.868Z,96.45
2023-03-22T19:17:04.669Z,97.62
2023-03-22T19:32:04.742Z,97.77
2023-03-22T19:47:04.860Z,99.24
2023-03-22T20:02:05.193Z,97.81
2023-03-22T20:17:07.006Z,96.54
2023-03-22T20:32:10.917Z,96.59
2023-03-22T20:47:12.224Z,95.97
2023-03-22T21:02:12.553Z,94.95
2023-03-22T21:17:13.010Z,95.51
2023-03-22T21:32:13.806Z,95.16
2023-03-22T21:47:14.042Z,93.84
2023-03-22T22:02:14.365Z,95.10
2023-03-22T22:17:14.422Z,96.02
2023-03-22T22:32:14.561Z,96.43
2023-03-22T22:47:15.271Z,95.61
2023-03-22T23:02:16.263Z,95.20
2023-03-22T23:17:16.175Z,94.90
2023-03-22T23:32:16.386Z,96.68
2023-03-22T23:47:16.633Z,97.79
